sensor_id;sensor_type;location;lat;lon;timestamp;temperature;humidity
69901;DHT22;57183;50.930;5.406;2023-01-24T00:00:56;4.20;99.90
69901;DHT22;57183;50.930;5.406;2023-01-24T00:03:22;4.30;99.90
69901;DHT22;57183;50.930;5.406;2023-01-24T00:05:48;4.10;99.90
69901;DHT22;57183;50.930;5.406;2023-01-24T00:08:16;4.00;99.90
69901;DHT22;57183;50.930;5.406;2023-01-24T00:10:44;3.90;99.90
69901;DHT22;57183;50.930;5.406;2023-01-24T00:13:11;4.00;99.90
69901;DHT22;57183;50.930;5.406;2023-01-24T00:15:37;3.80;99.90
69901;DHT22;57183;50.930;5.406;2023-01-24T00:18:03;3.90;99.90
69901;DHT22;57183;50.930;5.406;2023-01-24T00:20:29;3.80;99.90
69901;DHT22;57183;50.930;5.406;2023-01-24T00:22:54;4.00;99.90
69901;DHT22;57183;50.930;5.406;2023-01-24T00:25:20;3.90;99.90
69901;DHT22;57183;50.930;5.406;2023-01-24T00:27:46;4.00;99.90
69901;DHT22;57183;50.930;5.406;2023-01-24T00:30:12;4.20;99.90
69901;DHT22;57183;50.930;5.406;2023-01-24T00:32:37;4.20;99.90
69901;DHT22;57183;50.930;5.406;2023-01-24T00:35:03;4.20;99.90
69901;DHT22;57183;50.930;5.406;2023-01-24T00:37:29;3.90;99.90
69901;DHT22;57183;50.930;5.406;2023-01-24T00:39:55;4.00;99.90
69901;DHT22;57183;50.930;5.406;2023-01-24T00:42:20;4.20;99.90
69901;DHT22;57183;50.930;5.406;2023-01-24T00:44:46;4.40;99.90
69901;DHT22;57183;50.930;5.406;2023-01-24T00:47:12;4.30;99.90
69901;DHT22;57183;50.930;5.406;2023-01-24T00:49:37;4.10;99.90
69901;DHT22;57183;50.930;5.406;2023-01-24T00:52:03;4.00;99.90
69901;DHT22;57183;50.930;5.406;2023-01-24T00:54:29;4.00;99.90
69901;DHT22;57183;50.930;5.406;2023-01-24T00:56:55;4.10;99.90
69901;DHT22;57183;50.930;5.406;2023-01-24T00:59:20;4.20;99.90
69901;DHT22;57183;50.930;5.406;2023-01-24T01:01:46;4.30;99.90
69901;DHT22;57183;50.930;5.406;2023-01-24T01:04:12;4.10;99.90
69901;DHT22;57183;50.930;5.406;2023-01-24T01:06:37;3.90;99.90
69901;DHT22;57183;50.930;5.406;2023-01-24T01:09:03;3.90;99.90
69901;DHT22;57183;50.930;5.406;2023-01-24T01:11:29;4.00;99.90
69901;DHT22;57183;50.930;5.406;2023-01-24T01:13:55;4.00;99.90
69901;DHT22;57183;50.930;5.406;2023-01-24T01:16:22;4.20;99.90
69901;DHT22;57183;50.930;5.406;2023-01-24T01:18:50;4.10;99.90
69901;DHT22;57183;50.930;5.406;2023-01-24T01:21:18;4.20;99.90
69901;DHT22;57183;50.930;5.406;2023-01-24T01:23:44;4.10;99.90
69901;DHT22;57183;50.930;5.406;2023-01-24T01:26:17;4.20;99.90
69901;DHT22;57183;50.930;5.406;2023-01-24T01:28:43;4.00;99.90
69901;DHT22;57183;50.930;5.406;2023-01-24T01:31:09;4.00;99.90
69901;DHT22;57183;50.930;5.406;2023-01-24T01:33:35;4.10;99.90
69901;DHT22;57183;50.930;5.406;2023-01-24T01:36:01;4.20;99.90
69901;DHT22;57183;50.930;5.406;2023-01-24T01:38:27;4.30;99.90
69901;DHT22;57183;50.930;5.406;2023-01-24T01:40:54;4.50;99.90
69901;DHT22;57183;50.930;5.406;2023-01-24T01:43:22;4.40;99.90
69901;DHT22;57183;50.930;5.406;2023-01-24T01:45:50;4.00;99.90
69901;DHT22;57183;50.930;5.406;2023-01-24T01:48:42;4.00;99.90
69901;DHT22;57183;50.930;5.406;2023-01-24T01:56:50;4.10;99.90
69901;DHT22;57183;50.930;5.406;2023-01-24T01:59:27;4.20;99.90
69901;DHT22;57183;50.930;5.406;2023-01-24T02:01:56;4.10;99.90
69901;DHT22;57183;50.930;5.406;2023-01-24T02:04:27;4.30;99.90
69901;DHT22;57183;50.930;5.406;2023-01-24T02:07:18;4.20;99.90
69901;DHT22;57183;50.930;5.406;2023-01-24T02:09:48;4.10;99.90
69901;DHT22;57183;50.930;5.406;2023-01-24T02:12:26;4.10;99.90
69901;DHT22;57183;50.930;5.406;2023-01-24T02:15:01;4.20;99.90
69901;DHT22;57183;50.930;5.406;2023-01-24T02:17:45;4.20;99.90
69901;DHT22;57183;50.930;5.406;2023-01-24T02:25:28;4.20;99.90
69901;DHT22;57183;50.930;5.406;2023-01-24T02:27:55;4.10;99.90
69901;DHT22;57183;50.930;5.406;2023-01-24T02:30:23;4.20;99.90
69901;DHT22;57183;50.930;5.406;2023-01-24T02:32:49;4.40;99.90
69901;DHT22;57183;50.930;5.406;2023-01-24T02:35:41;4.40;99.90
69901;DHT22;57183;50.930;5.406;2023-01-24T02:38:19;4.20;99.90
69901;DHT22;57183;50.930;5.406;2023-01-24T02:40:47;3.90;99.90
69901;DHT22;57183;50.930;5.406;2023-01-24T02:43:16;3.80;99.90
69901;DHT22;57183;50.930;5.406;2023-01-24T02:45:42;4.00;99.90
69901;DHT22;57183;50.930;5.406;2023-01-24T02:48:08;4.50;99.90
69901;DHT22;57183;50.930;5.406;2023-01-24T02:50:34;4.50;99.90
69901;DHT22;57183;50.930;5.406;2023-01-24T02:53:20;4.40;99.90
69901;DHT22;57183;50.930;5.406;2023-01-24T02:55:59;4.30;99.90
69901;DHT22;57183;50.930;5.406;2023-01-24T02:58:43;4.30;99.90
69901;DHT22;57183;50.930;5.406;2023-01-24T03:01:09;4.40;99.90
69901;DHT22;57183;50.930;5.406;2023-01-24T03:03:35;4.50;99.90
69901;DHT22;57183;50.930;5.406;2023-01-24T03:06:00;4.20;99.90
69901;DHT22;57183;50.930;5.406;2023-01-24T03:08:29;4.20;99.90
69901;DHT22;57183;50.930;5.406;2023-01-24T03:10:56;4.40;99.90
69901;DHT22;57183;50.930;5.406;2023-01-24T03:13:22;4.40;99.90
69901;DHT22;57183;50.930;5.406;2023-01-24T03:16:07;4.40;99.90
69901;DHT22;57183;50.930;5.406;2023-01-24T03:18:52;4.40;99.90
69901;DHT22;57183;50.930;5.406;2023-01-24T03:21:37;4.40;99.90
69901;DHT22;57183;50.930;5.406;2023-01-24T03:24:22;4.30;99.90
69901;DHT22;57183;50.930;5.406;2023-01-24T03:27:07;4.20;99.90
69901;DHT22;57183;50.930;5.406;2023-01-24T03:29:51;4.40;99.90
69901;DHT22;57183;50.930;5.406;2023-01-24T03:32:35;4.70;99.90
69901;DHT22;57183;50.930;5.406;2023-01-24T03:35:20;4.50;99.90
69901;DHT22;57183;50.930;5.406;2023-01-24T03:37:46;4.50;99.90
69901;DHT22;57183;50.930;5.406;2023-01-24T03:40:30;4.60;99.90
69901;DHT22;57183;50.930;5.406;2023-01-24T03:42:56;4.70;99.90
69901;DHT22;57183;50.930;5.406;2023-01-24T03:45:30;4.50;99.90
69901;DHT22;57183;50.930;5.406;2023-01-24T03:47:58;4.40;99.90
69901;DHT22;57183;50.930;5.406;2023-01-24T03:50:27;4.40;99.90
69901;DHT22;57183;50.930;5.406;2023-01-24T03:53:12;4.30;99.90
69901;DHT22;57183;50.930;5.406;2023-01-24T03:55:38;4.30;99.90
69901;DHT22;57183;50.930;5.406;2023-01-24T03:58:04;4.40;99.90
69901;DHT22;57183;50.930;5.406;2023-01-24T04:00:30;4.30;99.90
69901;DHT22;57183;50.930;5.406;2023-01-24T04:02:56;4.20;99.90
69901;DHT22;57183;50.930;5.406;2023-01-24T04:05:22;4.40;99.90
69901;DHT22;57183;50.930;5.406;2023-01-24T04:07:48;4.40;99.90
69901;DHT22;57183;50.930;5.406;2023-01-24T04:10:14;4.50;99.90
69901;DHT22;57183;50.930;5.406;2023-01-24T04:12:41;4.60;99.90
69901;DHT22;57183;50.930;5.406;2023-01-24T04:15:08;4.70;99.90
69901;DHT22;57183;50.930;5.406;2023-01-24T04:17:34;4.60;99.90
69901;DHT22;57183;50.930;5.406;2023-01-24T04:20:00;4.40;99.90
69901;DHT22;57183;50.930;5.406;2023-01-24T04:22:25;4.50;99.90
69901;DHT22;57183;50.930;5.406;2023-01-24T04:24:51;4.50;99.90
69901;DHT22;57183;50.930;5.406;2023-01-24T04:27:17;4.20;99.90
69901;DHT22;57183;50.930;5.406;2023-01-24T04:29:42;4.00;99.90
69901;DHT22;57183;50.930;5.406;2023-01-24T04:32:08;4.00;99.90
69901;DHT22;57183;50.930;5.406;2023-01-24T04:34:34;4.30;99.90
69901;DHT22;57183;50.930;5.406;2023-01-24T04:37:00;4.50;99.90
69901;DHT22;57183;50.930;5.406;2023-01-24T04:39:25;4.50;99.90
69901;DHT22;57183;50.930;5.406;2023-01-24T04:41:51;4.50;99.90
69901;DHT22;57183;50.930;5.406;2023-01-24T04:44:16;4.40;99.90
69901;DHT22;57183;50.930;5.406;2023-01-24T04:46:42;4.30;99.90
69901;DHT22;57183;50.930;5.406;2023-01-24T04:49:08;4.10;99.90
69901;DHT22;57183;50.930;5.406;2023-01-24T04:51:33;4.10;99.90
69901;DHT22;57183;50.930;5.406;2023-01-24T04:53:59;3.90;99.90
69901;DHT22;57183;50.930;5.406;2023-01-24T04:56:25;3.60;99.90
69901;DHT22;57183;50.930;5.406;2023-01-24T04:58:50;3.50;99.90
69901;DHT22;57183;50.930;5.406;2023-01-24T05:01:16;3.60;99.90
69901;DHT22;57183;50.930;5.406;2023-01-24T05:03:42;3.70;99.90
69901;DHT22;57183;50.930;5.406;2023-01-24T05:06:07;3.90;99.90
69901;DHT22;57183;50.930;5.406;2023-01-24T05:08:33;3.70;99.90
69901;DHT22;57183;50.930;5.406;2023-01-24T05:11:02;3.60;99.90
69901;DHT22;57183;50.930;5.406;2023-01-24T05:13:28;3.70;99.90
69901;DHT22;57183;50.930;5.406;2023-01-24T05:15:54;3.80;99.90
69901;DHT22;57183;50.930;5.406;2023-01-24T05:18:19;3.70;99.90
69901;DHT22;57183;50.930;5.406;2023-01-24T05:20:45;3.70;99.90
69901;DHT22;57183;50.930;5.406;2023-01-24T05:23:11;3.70;99.90
69901;DHT22;57183;50.930;5.406;2023-01-24T05:25:37;3.80;99.90
69901;DHT22;57183;50.930;5.406;2023-01-24T05:28:02;3.80;99.90
69901;DHT22;57183;50.930;5.406;2023-01-24T05:30:29;3.80;99.90
69901;DHT22;57183;50.930;5.406;2023-01-24T05:32:57;4.00;99.90
69901;DHT22;57183;50.930;5.406;2023-01-24T05:35:23;3.80;99.90
69901;DHT22;57183;50.930;5.406;2023-01-24T05:37:49;3.80;99.90
69901;DHT22;57183;50.930;5.406;2023-01-24T05:40:15;4.10;99.90
69901;DHT22;57183;50.930;5.406;2023-01-24T05:42:41;4.20;99.90
69901;DHT22;57183;50.930;5.406;2023-01-24T05:45:08;4.20;99.90
69901;DHT22;57183;50.930;5.406;2023-01-24T05:47:34;3.90;99.90
69901;DHT22;57183;50.930;5.406;2023-01-24T05:50:00;3.70;99.90
69901;DHT22;57183;50.930;5.406;2023-01-24T05:52:25;3.90;99.90
69901;DHT22;57183;50.930;5.406;2023-01-24T05:54:51;4.00;99.90
69901;DHT22;57183;50.930;5.406;2023-01-24T05:57:17;3.80;99.90
69901;DHT22;57183;50.930;5.406;2023-01-24T05:59:43;3.70;99.90
69901;DHT22;57183;50.930;5.406;2023-01-24T06:02:09;3.70;99.90
69901;DHT22;57183;50.930;5.406;2023-01-24T06:04:35;3.60;99.90
69901;DHT22;57183;50.930;5.406;2023-01-24T06:07:01;3.80;99.90
69901;DHT22;57183;50.930;5.406;2023-01-24T06:09:26;3.80;99.90
69901;DHT22;57183;50.930;5.406;2023-01-24T06:11:52;3.90;99.90
69901;DHT22;57183;50.930;5.406;2023-01-24T06:14:18;3.80;99.90
69901;DHT22;57183;50.930;5.406;2023-01-24T06:16:44;3.70;99.90
69901;DHT22;57183;50.930;5.406;2023-01-24T06:19:11;3.50;99.90
69901;DHT22;57183;50.930;5.406;2023-01-24T06:21:44;3.70;99.90
69901;DHT22;57183;50.930;5.406;2023-01-24T06:26:43;3.90;99.90
69901;DHT22;57183;50.930;5.406;2023-01-24T06:29:10;4.10;99.90
69901;DHT22;57183;50.930;5.406;2023-01-24T06:39:56;3.70;99.90
69901;DHT22;57183;50.930;5.406;2023-01-24T06:42:22;3.60;99.90
69901;DHT22;57183;50.930;5.406;2023-01-24T06:44:48;3.70;99.90
69901;DHT22;57183;50.930;5.406;2023-01-24T06:47:15;3.80;99.90
69901;DHT22;57183;50.930;5.406;2023-01-24T06:49:41;3.70;99.90
69901;DHT22;57183;50.930;5.406;2023-01-24T06:52:08;3.60;99.90
69901;DHT22;57183;50.930;5.406;2023-01-24T06:54:35;3.40;99.90
69901;DHT22;57183;50.930;5.406;2023-01-24T06:57:01;3.50;99.90
69901;DHT22;57183;50.930;5.406;2023-01-24T06:59:27;3.70;99.90
69901;DHT22;57183;50.930;5.406;2023-01-24T07:01:53;3.70;99.90
69901;DHT22;57183;50.930;5.406;2023-01-24T07:04:19;3.80;99.90
69901;DHT22;57183;50.930;5.406;2023-01-24T07:06:45;3.80;99.90
69901;DHT22;57183;50.930;5.406;2023-01-24T07:09:11;3.90;99.90
69901;DHT22;57183;50.930;5.406;2023-01-24T07:11:37;3.80;99.90
69901;DHT22;57183;50.930;5.406;2023-01-24T07:14:02;3.70;99.90
69901;DHT22;57183;50.930;5.406;2023-01-24T07:16:28;3.50;99.90
69901;DHT22;57183;50.930;5.406;2023-01-24T07:18:54;3.70;99.90
69901;DHT22;57183;50.930;5.406;2023-01-24T07:21:20;3.80;99.90
69901;DHT22;57183;50.930;5.406;2023-01-24T07:23:47;3.80;99.90
69901;DHT22;57183;50.930;5.406;2023-01-24T07:26:14;3.80;99.90
69901;DHT22;57183;50.930;5.406;2023-01-24T07:28:40;3.70;99.90
69901;DHT22;57183;50.930;5.406;2023-01-24T07:31:11;3.60;99.90
69901;DHT22;57183;50.930;5.406;2023-01-24T07:33:37;3.60;99.90
69901;DHT22;57183;50.930;5.406;2023-01-24T07:36:13;3.40;99.90
69901;DHT22;57183;50.930;5.406;2023-01-24T07:38:39;3.50;99.90
69901;DHT22;57183;50.930;5.406;2023-01-24T07:41:08;3.40;99.90
69901;DHT22;57183;50.930;5.406;2023-01-24T07:43:34;3.60;99.90
69901;DHT22;57183;50.930;5.406;2023-01-24T07:46:00;3.70;99.90
69901;DHT22;57183;50.930;5.406;2023-01-24T07:48:25;3.70;99.90
69901;DHT22;57183;50.930;5.406;2023-01-24T07:50:51;3.70;99.90
69901;DHT22;57183;50.930;5.406;2023-01-24T07:53:16;3.90;99.90
69901;DHT22;57183;50.930;5.406;2023-01-24T07:55:42;4.00;99.90
69901;DHT22;57183;50.930;5.406;2023-01-24T07:58:08;3.90;99.90
69901;DHT22;57183;50.930;5.406;2023-01-24T08:00:33;3.80;99.90
69901;DHT22;57183;50.930;5.406;2023-01-24T08:02:59;3.80;99.90
69901;DHT22;57183;50.930;5.406;2023-01-24T08:05:25;3.60;99.90
69901;DHT22;57183;50.930;5.406;2023-01-24T08:07:50;3.60;99.90
69901;DHT22;57183;50.930;5.406;2023-01-24T08:10:18;3.70;99.90
69901;DHT22;57183;50.930;5.406;2023-01-24T08:12:44;3.30;99.90
69901;DHT22;57183;50.930;5.406;2023-01-24T08:15:10;3.50;99.90
69901;DHT22;57183;50.930;5.406;2023-01-24T08:17:36;3.70;99.90
69901;DHT22;57183;50.930;5.406;2023-01-24T08:20:02;3.60;99.90
69901;DHT22;57183;50.930;5.406;2023-01-24T08:22:28;3.50;99.90
69901;DHT22;57183;50.930;5.406;2023-01-24T08:24:54;3.60;99.90
69901;DHT22;57183;50.930;5.406;2023-01-24T08:27:20;3.90;99.90
69901;DHT22;57183;50.930;5.406;2023-01-24T08:29:45;3.80;99.90
69901;DHT22;57183;50.930;5.406;2023-01-24T08:32:11;3.80;99.90
69901;DHT22;57183;50.930;5.406;2023-01-24T08:34:37;3.90;99.90
69901;DHT22;57183;50.930;5.406;2023-01-24T08:37:02;3.90;99.90
69901;DHT22;57183;50.930;5.406;2023-01-24T08:39:28;4.00;99.90
69901;DHT22;57183;50.930;5.406;2023-01-24T08:41:53;4.00;99.90
69901;DHT22;57183;50.930;5.406;2023-01-24T08:44:19;4.10;99.90
69901;DHT22;57183;50.930;5.406;2023-01-24T08:46:45;3.90;99.90
69901;DHT22;57183;50.930;5.406;2023-01-24T08:49:11;3.90;99.90
69901;DHT22;57183;50.930;5.406;2023-01-24T08:51:37;3.80;99.90
69901;DHT22;57183;50.930;5.406;2023-01-24T08:54:04;3.70;99.90
69901;DHT22;57183;50.930;5.406;2023-01-24T08:56:31;3.70;99.90
69901;DHT22;57183;50.930;5.406;2023-01-24T08:58:56;4.00;99.90
69901;DHT22;57183;50.930;5.406;2023-01-24T09:01:22;4.00;99.90
69901;DHT22;57183;50.930;5.406;2023-01-24T09:03:48;4.00;99.90
69901;DHT22;57183;50.930;5.406;2023-01-24T09:06:14;4.20;99.90
69901;DHT22;57183;50.930;5.406;2023-01-24T09:08:40;4.10;99.90
69901;DHT22;57183;50.930;5.406;2023-01-24T09:11:05;4.20;99.90
69901;DHT22;57183;50.930;5.406;2023-01-24T09:13:31;4.00;99.90
69901;DHT22;57183;50.930;5.406;2023-01-24T09:16:00;4.10;99.90
69901;DHT22;57183;50.930;5.406;2023-01-24T09:18:25;4.30;99.90
69901;DHT22;57183;50.930;5.406;2023-01-24T09:20:51;4.20;99.90
69901;DHT22;57183;50.930;5.406;2023-01-24T09:23:17;4.30;99.90
69901;DHT22;57183;50.930;5.406;2023-01-24T09:25:50;4.60;99.90
69901;DHT22;57183;50.930;5.406;2023-01-24T09:28:16;4.70;99.90
69901;DHT22;57183;50.930;5.406;2023-01-24T09:30:49;4.50;99.90
69901;DHT22;57183;50.930;5.406;2023-01-24T09:33:16;4.30;99.90
69901;DHT22;57183;50.930;5.406;2023-01-24T09:35:53;4.50;99.90
69901;DHT22;57183;50.930;5.406;2023-01-24T09:38:19;4.30;99.90
69901;DHT22;57183;50.930;5.406;2023-01-24T09:41:02;4.50;99.90
69901;DHT22;57183;50.930;5.406;2023-01-24T09:46:02;4.70;99.90
69901;DHT22;57183;50.930;5.406;2023-01-24T09:48:33;4.60;99.90
69901;DHT22;57183;50.930;5.406;2023-01-24T09:51:06;4.40;99.90
69901;DHT22;57183;50.930;5.406;2023-01-24T09:53:45;4.40;99.90
69901;DHT22;57183;50.930;5.406;2023-01-24T09:56:35;4.60;99.90
69901;DHT22;57183;50.930;5.406;2023-01-24T10:01:47;4.60;99.90
69901;DHT22;57183;50.930;5.406;2023-01-24T10:04:35;4.70;99.90
69901;DHT22;57183;50.930;5.406;2023-01-24T10:12:54;4.20;99.90
69901;DHT22;57183;50.930;5.406;2023-01-24T10:24:12;4.80;99.90
69901;DHT22;57183;50.930;5.406;2023-01-24T10:26:50;4.50;99.90
69901;DHT22;57183;50.930;5.406;2023-01-24T10:32:02;4.40;99.90
69901;DHT22;57183;50.930;5.406;2023-01-24T10:34:31;4.20;99.90
69901;DHT22;57183;50.930;5.406;2023-01-24T10:39:32;4.50;99.90
69901;DHT22;57183;50.930;5.406;2023-01-24T10:41:58;4.30;99.90
69901;DHT22;57183;50.930;5.406;2023-01-24T10:44:28;4.30;99.90
69901;DHT22;57183;50.930;5.406;2023-01-24T10:50:08;4.40;99.90
69901;DHT22;57183;50.930;5.406;2023-01-24T10:52:34;4.60;99.90
69901;DHT22;57183;50.930;5.406;2023-01-24T10:55:01;4.80;99.90
69901;DHT22;57183;50.930;5.406;2023-01-24T10:57:39;5.00;99.90
69901;DHT22;57183;50.930;5.406;2023-01-24T11:02:54;4.70;99.90
69901;DHT22;57183;50.930;5.406;2023-01-24T11:05:21;4.60;99.90
69901;DHT22;57183;50.930;5.406;2023-01-24T11:07:52;4.80;99.90
69901;DHT22;57183;50.930;5.406;2023-01-24T11:10:28;4.90;99.90
69901;DHT22;57183;50.930;5.406;2023-01-24T11:12:58;5.10;99.90
69901;DHT22;57183;50.930;5.406;2023-01-24T11:15:33;4.90;99.90
69901;DHT22;57183;50.930;5.406;2023-01-24T11:18:11;5.00;99.90
69901;DHT22;57183;50.930;5.406;2023-01-24T11:20:38;5.10;99.90
69901;DHT22;57183;50.930;5.406;2023-01-24T11:23:24;5.20;99.90
69901;DHT22;57183;50.930;5.406;2023-01-24T11:26:01;5.10;99.90
69901;DHT22;57183;50.930;5.406;2023-01-24T11:28:33;4.90;99.90
69901;DHT22;57183;50.930;5.406;2023-01-24T11:31:06;4.90;99.90
69901;DHT22;57183;50.930;5.406;2023-01-24T11:36:40;4.80;99.90
69901;DHT22;57183;50.930;5.406;2023-01-24T11:39:41;4.90;99.90
69901;DHT22;57183;50.930;5.406;2023-01-24T11:50:55;4.90;99.90
69901;DHT22;57183;50.930;5.406;2023-01-24T11:53:49;4.50;99.90
69901;DHT22;57183;50.930;5.406;2023-01-24T11:56:43;4.40;99.90
69901;DHT22;57183;50.930;5.406;2023-01-24T12:05:46;4.60;99.90
69901;DHT22;57183;50.930;5.406;2023-01-24T12:21:10;5.00;99.90
69901;DHT22;57183;50.930;5.406;2023-01-24T12:24:04;4.70;99.90
69901;DHT22;57183;50.930;5.406;2023-01-24T12:26:46;4.90;99.90
69901;DHT22;57183;50.930;5.406;2023-01-24T12:29:23;5.20;99.90
69901;DHT22;57183;50.930;5.406;2023-01-24T12:31:58;5.30;99.90
69901;DHT22;57183;50.930;5.406;2023-01-24T12:34:39;5.40;99.90
69901;DHT22;57183;50.930;5.406;2023-01-24T12:40:02;5.60;99.90
69901;DHT22;57183;50.930;5.406;2023-01-24T12:46:08;5.50;99.90
69901;DHT22;57183;50.930;5.406;2023-01-24T12:48:55;5.50;99.90
69901;DHT22;57183;50.930;5.406;2023-01-24T12:51:31;5.20;99.90
69901;DHT22;57183;50.930;5.406;2023-01-24T12:59:52;4.60;99.90
69901;DHT22;57183;50.930;5.406;2023-01-24T13:02:43;4.70;99.90
69901;DHT22;57183;50.930;5.406;2023-01-24T13:13:40;4.20;99.90
69901;DHT22;57183;50.930;5.406;2023-01-24T13:19:11;4.50;99.90
69901;DHT22;57183;50.930;5.406;2023-01-24T13:24:38;4.40;99.90
69901;DHT22;57183;50.930;5.406;2023-01-24T13:32:59;4.70;99.90
69901;DHT22;57183;50.930;5.406;2023-01-24T13:35:27;4.80;99.90
69901;DHT22;57183;50.930;5.406;2023-01-24T13:40:27;5.00;99.90
69901;DHT22;57183;50.930;5.406;2023-01-24T13:42:56;5.10;99.90
69901;DHT22;57183;50.930;5.406;2023-01-24T13:47:57;4.90;99.90
69901;DHT22;57183;50.930;5.406;2023-01-24T13:50:27;4.90;99.90
69901;DHT22;57183;50.930;5.406;2023-01-24T13:52:54;4.70;99.90
69901;DHT22;57183;50.930;5.406;2023-01-24T13:57:52;4.30;99.90
69901;DHT22;57183;50.930;5.406;2023-01-24T14:00:50;4.50;99.90
69901;DHT22;57183;50.930;5.406;2023-01-24T14:03:24;4.40;99.90
69901;DHT22;57183;50.930;5.406;2023-01-24T14:05:53;4.40;99.90
69901;DHT22;57183;50.930;5.406;2023-01-24T14:10:50;4.50;99.90
69901;DHT22;57183;50.930;5.406;2023-01-24T14:19:22;4.40;99.90
69901;DHT22;57183;50.930;5.406;2023-01-24T14:21:55;4.60;99.90
69901;DHT22;57183;50.930;5.406;2023-01-24T14:26:56;4.90;99.90
69901;DHT22;57183;50.930;5.406;2023-01-24T14:29:28;4.70;99.90
69901;DHT22;57183;50.930;5.406;2023-01-24T14:32:00;4.70;99.90
69901;DHT22;57183;50.930;5.406;2023-01-24T14:34:43;5.00;99.90
69901;DHT22;57183;50.930;5.406;2023-01-24T14:37:13;5.20;99.90
69901;DHT22;57183;50.930;5.406;2023-01-24T14:39:41;5.10;99.90
69901;DHT22;57183;50.930;5.406;2023-01-24T14:42:12;5.10;99.90
69901;DHT22;57183;50.930;5.406;2023-01-24T14:47:25;4.90;99.90
69901;DHT22;57183;50.930;5.406;2023-01-24T14:49:55;4.90;99.90
69901;DHT22;57183;50.930;5.406;2023-01-24T14:52:23;4.80;99.90
69901;DHT22;57183;50.930;5.406;2023-01-24T14:54:57;4.80;99.90
69901;DHT22;57183;50.930;5.406;2023-01-24T15:00:05;5.00;99.90
69901;DHT22;57183;50.930;5.406;2023-01-24T15:02:32;5.10;99.90
69901;DHT22;57183;50.930;5.406;2023-01-24T15:04:58;5.10;99.90
69901;DHT22;57183;50.930;5.406;2023-01-24T15:07:24;5.00;99.90
69901;DHT22;57183;50.930;5.406;2023-01-24T15:09:50;5.00;99.90
69901;DHT22;57183;50.930;5.406;2023-01-24T15:12:33;4.80;99.90
69901;DHT22;57183;50.930;5.406;2023-01-24T15:15:01;4.80;99.90
69901;DHT22;57183;50.930;5.406;2023-01-24T15:17:29;4.90;99.90
69901;DHT22;57183;50.930;5.406;2023-01-24T15:20:07;4.90;99.90
69901;DHT22;57183;50.930;5.406;2023-01-24T15:22:38;4.80;99.90
69901;DHT22;57183;50.930;5.406;2023-01-24T15:25:20;4.70;99.90
69901;DHT22;57183;50.930;5.406;2023-01-24T15:27:47;4.70;99.90
69901;DHT22;57183;50.930;5.406;2023-01-24T15:30:24;4.90;99.90
69901;DHT22;57183;50.930;5.406;2023-01-24T15:33:01;4.70;99.90
69901;DHT22;57183;50.930;5.406;2023-01-24T15:40:32;4.40;99.90
69901;DHT22;57183;50.930;5.406;2023-01-24T15:42:59;4.70;99.90
69901;DHT22;57183;50.930;5.406;2023-01-24T15:45:52;4.70;99.90
69901;DHT22;57183;50.930;5.406;2023-01-24T15:48:37;4.60;99.90
69901;DHT22;57183;50.930;5.406;2023-01-24T15:51:04;4.70;99.90
69901;DHT22;57183;50.930;5.406;2023-01-24T15:53:43;4.70;99.90
69901;DHT22;57183;50.930;5.406;2023-01-24T15:56:22;4.50;99.90
69901;DHT22;57183;50.930;5.406;2023-01-24T15:58:48;4.40;99.90
69901;DHT22;57183;50.930;5.406;2023-01-24T16:01:14;4.30;99.90
69901;DHT22;57183;50.930;5.406;2023-01-24T16:03:40;4.50;99.90
69901;DHT22;57183;50.930;5.406;2023-01-24T16:06:06;4.30;99.90
69901;DHT22;57183;50.930;5.406;2023-01-24T16:08:32;4.30;99.90
69901;DHT22;57183;50.930;5.406;2023-01-24T16:10:58;4.20;99.90
69901;DHT22;57183;50.930;5.406;2023-01-24T16:13:31;4.10;99.90
69901;DHT22;57183;50.930;5.406;2023-01-24T16:15:58;4.20;99.90
69901;DHT22;57183;50.930;5.406;2023-01-24T16:18:25;4.10;99.90
69901;DHT22;57183;50.930;5.406;2023-01-24T16:20:51;4.40;99.90
69901;DHT22;57183;50.930;5.406;2023-01-24T16:23:17;4.50;99.90
69901;DHT22;57183;50.930;5.406;2023-01-24T16:25:43;4.30;99.90
69901;DHT22;57183;50.930;5.406;2023-01-24T16:28:21;4.10;99.90
69901;DHT22;57183;50.930;5.406;2023-01-24T16:30:48;3.90;99.90
69901;DHT22;57183;50.930;5.406;2023-01-24T16:33:19;4.10;99.90
69901;DHT22;57183;50.930;5.406;2023-01-24T16:35:45;4.10;99.90
69901;DHT22;57183;50.930;5.406;2023-01-24T16:38:12;4.10;99.90
69901;DHT22;57183;50.930;5.406;2023-01-24T16:40:39;4.10;99.90
69901;DHT22;57183;50.930;5.406;2023-01-24T16:43:05;4.00;99.90
69901;DHT22;57183;50.930;5.406;2023-01-24T16:45:32;4.00;99.90
69901;DHT22;57183;50.930;5.406;2023-01-24T16:47:58;4.00;99.90
69901;DHT22;57183;50.930;5.406;2023-01-24T16:50:24;3.90;99.90
69901;DHT22;57183;50.930;5.406;2023-01-24T16:52:50;4.10;99.90
69901;DHT22;57183;50.930;5.406;2023-01-24T16:55:16;4.20;99.90
69901;DHT22;57183;50.930;5.406;2023-01-24T16:57:42;4.20;99.90
69901;DHT22;57183;50.930;5.406;2023-01-24T17:00:10;4.20;99.90
69901;DHT22;57183;50.930;5.406;2023-01-24T17:02:38;4.20;99.90
69901;DHT22;57183;50.930;5.406;2023-01-24T17:05:04;4.10;99.90
69901;DHT22;57183;50.930;5.406;2023-01-24T17:07:30;4.10;99.90
69901;DHT22;57183;50.930;5.406;2023-01-24T17:09:56;4.10;99.90
69901;DHT22;57183;50.930;5.406;2023-01-24T17:12:21;3.70;99.90
69901;DHT22;57183;50.930;5.406;2023-01-24T17:14:47;3.50;99.90
69901;DHT22;57183;50.930;5.406;2023-01-24T17:17:13;3.60;99.90
69901;DHT22;57183;50.930;5.406;2023-01-24T17:19:38;3.70;99.90
69901;DHT22;57183;50.930;5.406;2023-01-24T17:22:05;3.70;99.90
69901;DHT22;57183;50.930;5.406;2023-01-24T17:24:31;3.60;99.90
69901;DHT22;57183;50.930;5.406;2023-01-24T17:26:57;3.80;99.90
69901;DHT22;57183;50.930;5.406;2023-01-24T17:29:22;3.90;99.90
69901;DHT22;57183;50.930;5.406;2023-01-24T17:31:53;3.90;99.90
69901;DHT22;57183;50.930;5.406;2023-01-24T17:34:19;4.00;99.90
69901;DHT22;57183;50.930;5.406;2023-01-24T17:36:45;3.90;99.90
69901;DHT22;57183;50.930;5.406;2023-01-24T17:39:12;3.80;99.90
69901;DHT22;57183;50.930;5.406;2023-01-24T17:41:39;4.00;99.90
69901;DHT22;57183;50.930;5.406;2023-01-24T17:44:05;3.90;99.90
69901;DHT22;57183;50.930;5.406;2023-01-24T17:46:31;3.90;99.90
69901;DHT22;57183;50.930;5.406;2023-01-24T17:48:56;4.00;99.90
69901;DHT22;57183;50.930;5.406;2023-01-24T17:51:23;4.00;99.90
69901;DHT22;57183;50.930;5.406;2023-01-24T17:53:48;4.00;99.90
69901;DHT22;57183;50.930;5.406;2023-01-24T17:56:15;4.10;99.90
69901;DHT22;57183;50.930;5.406;2023-01-24T17:58:41;4.00;99.90
69901;DHT22;57183;50.930;5.406;2023-01-24T18:01:08;4.10;99.90
69901;DHT22;57183;50.930;5.406;2023-01-24T18:03:42;4.30;99.90
69901;DHT22;57183;50.930;5.406;2023-01-24T18:06:08;4.50;99.90
69901;DHT22;57183;50.930;5.406;2023-01-24T18:08:33;4.30;99.90
69901;DHT22;57183;50.930;5.406;2023-01-24T18:11:07;4.30;99.90
69901;DHT22;57183;50.930;5.406;2023-01-24T18:13:33;4.50;99.90
69901;DHT22;57183;50.930;5.406;2023-01-24T18:16:05;4.20;99.90
69901;DHT22;57183;50.930;5.406;2023-01-24T18:18:32;4.10;99.90
69901;DHT22;57183;50.930;5.406;2023-01-24T18:20:58;4.00;99.90
69901;DHT22;57183;50.930;5.406;2023-01-24T18:23:24;4.00;99.90